createdAt,value
2019-04-25T00:00:52.255Z,13.80
2019-04-25T00:03:32.852Z,13.70
2019-04-25T00:06:02.441Z,13.70
2019-04-25T00:08:31.774Z,13.60
2019-04-25T00:11:02.703Z,13.60
2019-04-25T00:13:32.131Z,13.50
2019-04-25T00:16:01.902Z,13.50
2019-04-25T00:18:31.919Z,13.40
2019-04-25T00:21:02.935Z,13.40
2019-04-25T00:23:32.284Z,13.30
2019-04-25T00:26:15.351Z,13.30
2019-04-25T00:28:45.446Z,13.20
2019-04-25T00:31:15.187Z,13.20
2019-04-25T00:33:47.673Z,13.10
2019-04-25T00:36:17.030Z,13.10
2019-04-25T00:38:47.866Z,13.10
2019-04-25T00:41:17.970Z,13.00
2019-04-25T00:43:47.599Z,13.00
2019-04-25T00:46:16.962Z,13.00
2019-04-25T00:48:46.340Z,12.90
2019-04-25T00:51:15.705Z,12.90
2019-04-25T00:53:45.044Z,12.90
2019-04-25T00:56:14.447Z,12.80
2019-04-25T00:58:57.500Z,12.70
2019-04-25T01:01:29.109Z,12.70
2019-04-25T01:03:59.141Z,12.60
2019-04-25T01:06:28.487Z,12.60
2019-04-25T01:08:57.948Z,12.50
2019-04-25T01:11:27.375Z,12.50
2019-04-25T01:13:57.298Z,12.50
2019-04-25T01:16:26.733Z,12.40
2019-04-25T01:18:56.101Z,12.40
2019-04-25T01:21:25.494Z,12.40
2019-04-25T01:23:55.710Z,12.30
2019-04-25T01:26:25.455Z,12.30
2019-04-25T01:28:54.961Z,12.30
2019-04-25T01:31:26.052Z,12.30
2019-04-25T01:33:55.603Z,12.30
2019-04-25T01:36:26.835Z,12.20
2019-04-25T01:39:16.269Z,12.20
2019-04-25T01:41:47.928Z,12.20
2019-04-25T01:44:24.714Z,12.10
2019-04-25T01:46:55.603Z,12.10
2019-04-25T01:49:25.844Z,12.10
2019-04-25T01:51:57.431Z,12.10
2019-04-25T02:14:52.684Z,9.20
2019-04-25T02:17:21.818Z,9.40
2019-04-25T02:19:52.103Z,9.70
2019-04-25T02:22:21.598Z,10.00
2019-04-25T02:24:50.944Z,10.20
2019-04-25T02:27:20.303Z,10.40
2019-04-25T02:29:49.761Z,10.50
2019-04-25T02:32:19.132Z,10.60
2019-04-25T02:34:48.472Z,10.70
2019-04-25T02:37:18.348Z,10.70
2019-04-25T02:39:47.762Z,10.80
2019-04-25T02:42:17.203Z,10.80
2019-04-25T02:44:48.264Z,10.90
2019-04-25T02:47:28.008Z,10.90
2019-04-25T02:50:11.598Z,10.90
2019-04-25T02:52:44.387Z,10.90
2019-04-25T02:55:29.506Z,10.90
2019-04-25T02:57:45.415Z,10.90
2019-04-25T03:00:26.346Z,10.90
2019-04-25T03:02:57.288Z,10.90
2019-04-25T03:05:27.446Z,10.90
2019-04-25T03:07:57.931Z,10.90
2019-04-25T03:10:29.523Z,10.90
2019-04-25T03:13:00.280Z,10.90
2019-04-25T03:15:31.549Z,11.00
2019-04-25T03:18:02.311Z,11.00
2019-04-25T03:20:35.489Z,11.00
2019-04-25T03:23:24.510Z,11.00
2019-04-25T03:25:53.607Z,10.90
2019-04-25T03:28:23.898Z,10.90
2019-04-25T03:30:54.991Z,10.90
2019-04-25T03:33:25.950Z,10.90
2019-04-25T03:35:56.467Z,10.90
2019-04-25T03:38:25.827Z,10.90
2019-04-25T03:40:55.731Z,10.90
2019-04-25T03:43:25.082Z,10.90
2019-04-25T03:45:54.596Z,10.90
2019-04-25T03:48:25.198Z,10.90
2019-04-25T03:50:54.683Z,10.90
2019-04-25T03:53:25.590Z,10.90
2019-04-25T03:55:55.541Z,10.90
2019-04-25T03:58:24.897Z,10.90
2019-04-25T04:00:54.942Z,10.90
2019-04-25T04:03:24.291Z,10.80
2019-04-25T04:05:54.040Z,10.80
2019-04-25T04:08:24.887Z,10.80
2019-04-25T04:10:54.465Z,10.80
2019-04-25T04:13:24.344Z,10.70
2019-04-25T04:15:54.290Z,10.70
2019-04-25T04:18:27.077Z,10.70
2019-04-25T04:20:58.450Z,10.70
2019-04-25T04:23:29.450Z,10.70
2019-04-25T04:25:58.959Z,10.70
2019-04-25T04:28:28.333Z,10.60
2019-04-25T04:30:58.155Z,10.60
2019-04-25T04:33:32.257Z,10.60
2019-04-25T04:36:00.225Z,10.60
2019-04-25T04:38:29.626Z,10.60
2019-04-25T04:41:00.517Z,10.60
2019-04-25T04:43:31.435Z,10.60
2019-04-25T04:46:01.162Z,10.60
2019-04-25T04:48:30.514Z,10.60
2019-04-25T04:50:59.862Z,10.60
2019-04-25T04:53:33.892Z,10.60
2019-04-25T04:56:04.234Z,10.60
2019-04-25T04:58:34.295Z,10.70
2019-04-25T05:01:04.284Z,10.70
2019-04-25T05:03:35.275Z,10.90
2019-04-25T05:06:23.999Z,10.90
2019-04-25T05:08:55.056Z,11.00
2019-04-25T05:11:25.532Z,11.10
2019-04-25T05:13:56.511Z,11.10
2019-04-25T05:16:25.898Z,11.20
2019-04-25T05:18:55.929Z,11.20
2019-04-25T05:21:27.033Z,11.30
2019-04-25T05:23:57.209Z,11.30
2019-04-25T05:26:26.565Z,11.40
2019-04-25T05:28:55.951Z,11.50
2019-04-25T05:31:26.959Z,11.50
2019-04-25T05:33:56.355Z,11.60
2019-04-25T05:36:27.381Z,11.70
2019-04-25T05:38:56.737Z,11.70
2019-04-25T05:41:30.541Z,11.80
2019-04-25T05:44:00.292Z,11.90
2019-04-25T05:46:29.683Z,12.00
2019-04-25T05:48:59.052Z,12.10
2019-04-25T05:51:28.431Z,12.20
2019-04-25T05:53:57.808Z,12.30
2019-04-25T05:56:28.309Z,12.40
2019-04-25T05:58:57.688Z,12.50
2019-04-25T06:01:29.209Z,12.60
2019-04-25T06:03:58.127Z,12.70
2019-04-25T06:06:28.255Z,12.70
2019-04-25T06:09:02.011Z,12.80
2019-04-25T06:11:35.722Z,12.90
2019-04-25T06:14:06.756Z,13.00
2019-04-25T06:16:37.355Z,13.10
2019-04-25T06:19:14.140Z,13.30
2019-04-25T06:21:40.237Z,13.40
2019-04-25T06:24:20.520Z,13.50
2019-04-25T06:26:57.716Z,13.60
2019-04-25T06:29:27.071Z,13.70
2019-04-25T06:32:06.023Z,13.80
2019-04-25T06:34:28.411Z,13.90
2019-04-25T06:36:58.632Z,14.10
2019-04-25T06:39:28.013Z,14.10
2019-04-25T06:41:57.908Z,14.20
2019-04-25T06:44:32.598Z,14.30
2019-04-25T06:47:15.116Z,14.40
2019-04-25T06:49:45.501Z,14.50
2019-04-25T06:52:17.559Z,14.50
2019-04-25T06:54:46.953Z,14.60
2019-04-25T06:57:16.341Z,14.70
2019-04-25T06:59:45.699Z,14.80
2019-04-25T07:02:15.545Z,14.90
2019-04-25T07:04:45.658Z,15.00
2019-04-25T07:07:15.207Z,15.10
2019-04-25T07:09:44.727Z,15.30
2019-04-25T07:12:14.150Z,15.40
2019-04-25T07:14:44.039Z,15.50
2019-04-25T07:17:17.032Z,15.60
2019-04-25T07:19:46.432Z,15.80
2019-04-25T07:22:15.939Z,15.90
2019-04-25T07:24:45.295Z,16.00
2019-04-25T07:27:34.783Z,16.10
2019-04-25T07:30:13.507Z,16.10
2019-04-25T07:32:44.597Z,16.20
2019-04-25T07:35:14.050Z,16.20
2019-04-25T07:37:44.207Z,16.30
2019-04-25T07:40:15.823Z,16.40
2019-04-25T07:42:45.197Z,16.40
2019-04-25T07:45:16.900Z,16.50
2019-04-25T07:47:46.638Z,16.60
2019-04-25T07:50:16.343Z,16.60
2019-04-25T07:52:46.068Z,16.70
2019-04-25T07:55:15.733Z,16.80
2019-04-25T07:57:45.168Z,16.80
2019-04-25T08:00:17.082Z,16.90
2019-04-25T08:02:46.565Z,16.90
2019-04-25T08:05:19.021Z,17.00
2019-04-25T08:07:48.481Z,17.10
2019-04-25T08:10:19.755Z,17.20
2019-04-25T08:12:49.128Z,17.20
2019-04-25T08:15:29.969Z,17.30
2019-04-25T08:18:01.126Z,17.40
2019-04-25T08:20:31.113Z,17.50
2019-04-25T08:23:04.332Z,17.60
2019-04-25T08:25:37.703Z,17.70
2019-04-25T08:28:05.415Z,17.90
2019-04-25T08:30:36.684Z,18.00
2019-04-25T08:33:07.073Z,18.20
2019-04-25T08:35:36.660Z,18.30
2019-04-25T08:38:06.742Z,18.40
2019-04-25T08:40:37.763Z,18.50
2019-04-25T08:43:07.393Z,18.60
2019-04-25T08:45:37.428Z,18.60
2019-04-25T08:48:08.061Z,18.60
2019-04-25T08:50:58.436Z,18.70
2019-04-25T08:53:29.432Z,18.70
2019-04-25T08:56:00.429Z,18.70
2019-04-25T08:59:01.505Z,18.80
2019-04-25T09:01:37.946Z,18.80
2019-04-25T09:04:25.566Z,18.80
2019-04-25T09:06:55.453Z,18.80
2019-04-25T09:09:24.886Z,18.80
2019-04-25T09:11:54.474Z,18.80
2019-04-25T09:14:24.563Z,18.90
2019-04-25T09:16:54.031Z,18.90
2019-04-25T09:19:24.186Z,18.90
2019-04-25T09:21:53.610Z,19.00
2019-04-25T09:24:24.605Z,19.00
2019-04-25T09:26:54.781Z,19.00
2019-04-25T09:29:24.134Z,19.10
2019-04-25T09:31:54.126Z,19.10
2019-04-25T09:34:24.628Z,19.20
2019-04-25T09:36:54.086Z,19.40
2019-04-25T09:39:25.090Z,19.40
2019-04-25T09:41:55.005Z,19.60
2019-04-25T09:44:26.000Z,19.70
2019-04-25T09:46:55.355Z,19.80
2019-04-25T09:49:26.962Z,19.90
2019-04-25T09:51:57.959Z,20.00
2019-04-25T09:54:29.013Z,20.20
2019-04-25T09:57:16.769Z,20.30
2019-04-25T09:59:46.241Z,20.40
2019-04-25T10:02:16.245Z,20.60
2019-04-25T10:04:46.376Z,20.70
2019-04-25T10:07:15.785Z,20.80
2019-04-25T10:09:46.085Z,20.90
2019-04-25T10:12:15.667Z,21.10
2019-04-25T10:15:21.140Z,21.20
2019-04-25T10:17:50.834Z,21.30
2019-04-25T10:20:20.419Z,21.40
2019-04-25T10:22:49.839Z,21.50
2019-04-25T10:25:20.014Z,21.60
2019-04-25T10:27:49.459Z,21.60
2019-04-25T10:30:23.383Z,21.70
2019-04-25T10:32:51.161Z,21.80
2019-04-25T10:35:20.868Z,21.90
2019-04-25T10:37:50.218Z,21.90
2019-04-25T10:40:20.639Z,22.00
2019-04-25T10:42:50.707Z,22.00
2019-04-25T10:45:23.359Z,22.00
2019-04-25T10:47:51.327Z,22.10
2019-04-25T10:50:23.726Z,22.10
2019-04-25T10:52:52.767Z,22.10
2019-04-25T10:55:23.451Z,22.10
2019-04-25T10:57:53.856Z,22.10
2019-04-25T11:00:46.234Z,22.20
2019-04-25T11:03:29.232Z,22.20
2019-04-25T11:05:59.002Z,22.20
2019-04-25T11:08:28.585Z,22.30
2019-04-25T11:10:58.979Z,22.40
2019-04-25T11:13:28.669Z,22.50
2019-04-25T11:15:58.694Z,22.60
2019-04-25T11:18:28.118Z,22.70
2019-04-25T11:20:57.575Z,22.80
2019-04-25T11:23:27.005Z,22.90
2019-04-25T11:25:56.577Z,23.00
2019-04-25T11:28:25.977Z,23.00
2019-04-25T11:30:56.838Z,23.10
2019-04-25T11:33:27.072Z,23.10
2019-04-25T11:35:56.915Z,23.20
2019-04-25T11:38:34.898Z,23.30
2019-04-25T11:41:05.972Z,23.30
2019-04-25T11:43:35.650Z,23.40
2019-04-25T11:46:05.200Z,23.50
2019-04-25T11:48:34.708Z,23.60
2019-04-25T11:51:05.269Z,23.70
2019-04-25T11:53:34.698Z,23.70
2019-04-25T11:56:04.289Z,23.80
2019-04-25T11:58:33.639Z,23.90
2019-04-25T12:01:05.158Z,23.90
2019-04-25T12:03:35.391Z,23.90
2019-04-25T12:06:05.871Z,24.00
2019-04-25T12:08:35.242Z,24.00
2019-04-25T12:11:05.931Z,24.00
2019-04-25T12:13:35.484Z,24.10
2019-04-25T12:16:04.843Z,24.20
2019-04-25T12:18:36.337Z,24.30
2019-04-25T12:21:05.698Z,24.30
2019-04-25T12:23:35.047Z,24.40
2019-04-25T12:26:04.554Z,24.50
2019-04-25T12:28:33.946Z,24.50
2019-04-25T12:31:04.093Z,24.50
2019-04-25T12:33:33.477Z,24.60
2019-04-25T12:36:02.835Z,24.60
2019-04-25T12:38:35.101Z,24.60
2019-04-25T12:41:04.153Z,24.60
2019-04-25T12:43:35.103Z,24.70
2019-04-25T12:46:08.662Z,24.70
2019-04-25T12:48:38.194Z,24.70
2019-04-25T12:51:08.649Z,24.80
2019-04-25T12:53:38.020Z,24.90
2019-04-25T12:56:09.267Z,25.00
2019-04-25T12:58:38.773Z,25.10
2019-04-25T13:01:09.477Z,25.10
2019-04-25T13:03:38.844Z,25.20
2019-04-25T13:06:08.283Z,25.20
2019-04-25T13:08:37.651Z,25.30
2019-04-25T13:11:08.651Z,25.30
2019-04-25T13:13:38.113Z,25.40
2019-04-25T13:16:07.645Z,25.40
2019-04-25T13:18:37.716Z,25.40
2019-04-25T13:21:07.753Z,25.50
2019-04-25T13:23:37.128Z,25.50
2019-04-25T13:26:07.208Z,25.50
2019-04-25T13:28:42.271Z,25.60
2019-04-25T13:31:14.883Z,25.70
2019-04-25T13:33:52.006Z,25.70
2019-04-25T13:36:23.985Z,25.80
2019-04-25T13:38:54.111Z,25.90
2019-04-25T13:41:23.428Z,25.90
2019-04-25T13:43:54.692Z,25.90
2019-04-25T13:46:26.118Z,26.00
2019-04-25T13:48:55.327Z,26.00
2019-04-25T13:51:25.053Z,26.00
2019-04-25T13:53:54.642Z,26.00
2019-04-25T13:56:25.902Z,26.00
2019-04-25T13:58:55.249Z,26.10
2019-04-25T14:01:25.865Z,26.20
2019-04-25T14:03:55.371Z,26.20
2019-04-25T14:06:24.825Z,26.20
2019-04-25T14:08:54.248Z,26.20
2019-04-25T14:11:24.155Z,26.30
2019-04-25T14:13:53.909Z,26.30
2019-04-25T14:16:30.704Z,26.30
2019-04-25T14:19:01.809Z,26.30
2019-04-25T14:21:31.652Z,26.30
2019-04-25T14:24:02.265Z,26.40
2019-04-25T14:26:31.640Z,26.40
2019-04-25T14:29:01.001Z,26.40
2019-04-25T14:31:41.532Z,26.50
2019-04-25T14:34:03.270Z,26.60
2019-04-25T14:36:34.558Z,26.60
2019-04-25T14:39:05.937Z,26.60
2019-04-25T14:41:35.311Z,26.60
2019-04-25T14:44:04.819Z,26.60
2019-04-25T14:46:34.337Z,26.60
2019-04-25T14:49:04.567Z,26.50
2019-04-25T14:51:33.971Z,26.50
2019-04-25T14:54:04.969Z,26.40
2019-04-25T14:56:38.705Z,26.40
2019-04-25T14:59:08.359Z,26.30
2019-04-25T15:01:45.039Z,26.20
2019-04-25T15:04:09.248Z,26.20
2019-04-25T15:06:40.249Z,26.20
2019-04-25T15:09:09.793Z,26.10
2019-04-25T15:11:39.202Z,26.10
2019-04-25T15:14:08.563Z,26.10
2019-04-25T15:16:42.539Z,26.10
2019-04-25T15:19:12.292Z,26.10
2019-04-25T15:21:41.660Z,26.10
2019-04-25T15:24:11.015Z,26.10
2019-04-25T15:26:42.332Z,26.20
2019-04-25T15:29:11.746Z,26.20
2019-04-25T15:31:41.126Z,26.20
2019-04-25T15:34:10.677Z,26.30
2019-04-25T15:36:47.415Z,26.40
2019-04-25T15:39:33.503Z,26.40
2019-04-25T15:42:06.385Z,26.40
2019-04-25T15:44:53.863Z,26.40
2019-04-25T15:47:25.290Z,26.40
2019-04-25T15:49:56.275Z,26.40
2019-04-25T15:52:26.690Z,26.30
2019-04-25T15:55:06.442Z,26.30
2019-04-25T15:57:28.079Z,26.30
2019-04-25T15:59:57.711Z,26.30
2019-04-25T16:02:27.605Z,26.30
2019-04-25T16:04:59.592Z,26.20
2019-04-25T16:07:29.099Z,26.20
2019-04-25T16:09:58.396Z,26.20
2019-04-25T16:12:28.699Z,26.10
2019-04-25T16:14:58.120Z,26.20
2019-04-25T16:17:30.701Z,26.10
2019-04-25T16:20:00.027Z,26.10
2019-04-25T16:22:30.266Z,26.10
2019-04-25T16:24:59.906Z,26.10
2019-04-25T16:27:30.342Z,26.10
2019-04-25T16:30:03.408Z,26.10
2019-04-25T16:32:32.860Z,26.00
2019-04-25T16:35:02.214Z,26.10
2019-04-25T16:37:32.430Z,26.00
2019-04-25T16:40:02.507Z,26.00
2019-04-25T16:42:31.863Z,26.00
2019-04-25T16:45:02.041Z,26.00
2019-04-25T16:47:31.752Z,26.00
2019-04-25T16:50:01.105Z,25.90
2019-04-25T16:52:32.193Z,25.90
2019-04-25T16:55:01.551Z,25.90
2019-04-25T16:57:31.601Z,25.80
2019-04-25T17:00:00.951Z,25.80
2019-04-25T17:02:35.583Z,25.80
2019-04-25T17:05:04.626Z,25.70
2019-04-25T17:07:34.103Z,25.70
2019-04-25T17:10:04.627Z,25.70
2019-04-25T17:12:34.368Z,25.60
2019-04-25T17:15:06.405Z,25.60
2019-04-25T17:17:38.037Z,25.60
2019-04-25T17:20:25.677Z,25.50
2019-04-25T17:22:56.239Z,25.50
2019-04-25T17:25:26.140Z,25.40
2019-04-25T17:27:55.655Z,25.40
2019-04-25T17:30:26.755Z,25.30
2019-04-25T17:33:14.487Z,25.20
2019-04-25T17:35:45.490Z,25.00
2019-04-25T17:38:19.409Z,24.90
2019-04-25T17:40:50.897Z,24.80
2019-04-25T17:43:20.322Z,24.80
2019-04-25T17:45:49.704Z,24.70
2019-04-25T17:48:19.524Z,24.60
2019-04-25T17:50:50.544Z,24.50
2019-04-25T17:53:19.922Z,24.40
2019-04-25T17:55:51.462Z,24.20
2019-04-25T17:58:20.845Z,24.10
2019-04-25T18:00:51.718Z,24.00
2019-04-25T18:03:21.418Z,23.90
2019-04-25T18:05:50.842Z,23.70
2019-04-25T18:08:20.314Z,23.60
2019-04-25T18:10:49.787Z,23.50
2019-04-25T18:13:19.140Z,23.30
2019-04-25T18:15:56.117Z,23.20
2019-04-25T18:18:31.521Z,23.10
2019-04-25T18:21:00.896Z,22.90
2019-04-25T18:23:35.257Z,22.80
2019-04-25T18:26:09.326Z,22.70
2019-04-25T18:28:41.522Z,22.60
2019-04-25T18:31:11.178Z,22.40
2019-04-25T18:33:41.840Z,22.30
2019-04-25T18:36:22.417Z,22.20
2019-04-25T18:38:56.496Z,22.00
2019-04-25T18:41:33.907Z,21.90
2019-04-25T18:44:07.945Z,21.80
2019-04-25T18:46:38.931Z,21.70
2019-04-25T18:49:09.055Z,21.70
2019-04-25T18:51:38.783Z,21.60
2019-04-25T18:54:12.532Z,21.50
2019-04-25T18:56:46.332Z,21.40
2019-04-25T18:59:20.358Z,21.30
2019-04-25T19:02:03.546Z,21.20
2019-04-25T19:04:34.546Z,21.10
2019-04-25T19:07:03.970Z,21.00
2019-04-25T19:09:33.785Z,20.90
2019-04-25T19:12:03.159Z,20.80
2019-04-25T19:14:32.872Z,20.70
2019-04-25T19:17:02.270Z,20.60
2019-04-25T19:19:31.639Z,20.50
2019-04-25T19:22:00.990Z,20.40
2019-04-25T19:24:30.358Z,20.30
2019-04-25T19:26:59.716Z,20.30
2019-04-25T19:29:29.062Z,20.20
2019-04-25T19:31:59.155Z,20.10
2019-04-25T19:34:28.518Z,20.10
2019-04-25T19:36:57.889Z,20.00
2019-04-25T19:39:28.909Z,19.90
2019-04-25T19:42:14.643Z,19.80
2019-04-25T19:44:45.004Z,19.70
2019-04-25T19:47:14.464Z,19.70
2019-04-25T19:49:44.933Z,19.60
2019-04-25T19:52:15.186Z,19.60
2019-04-25T19:54:45.248Z,19.50
2019-04-25T19:57:14.597Z,19.50
2019-04-25T19:59:44.669Z,19.50
2019-04-25T20:02:25.906Z,19.50
2019-04-25T20:04:59.537Z,19.40
2019-04-25T20:07:36.561Z,19.30
2019-04-25T20:10:12.351Z,19.30
2019-04-25T20:12:51.618Z,19.20
2019-04-25T20:15:20.062Z,19.20
2019-04-25T20:17:49.808Z,19.20
2019-04-25T20:20:19.412Z,19.10
2019-04-25T20:22:48.784Z,19.10
2019-04-25T20:25:18.321Z,19.10
2019-04-25T20:27:48.536Z,19.00
2019-04-25T20:30:18.302Z,19.00
2019-04-25T20:32:47.966Z,18.90
2019-04-25T20:35:17.720Z,18.90
2019-04-25T20:37:47.462Z,18.90
2019-04-25T20:40:17.768Z,18.80
2019-04-25T20:42:48.061Z,18.80
2019-04-25T20:45:18.023Z,18.80
2019-04-25T20:47:48.064Z,18.70
2019-04-25T20:50:17.442Z,18.70
2019-04-25T20:52:47.413Z,18.70
2019-04-25T20:55:17.206Z,18.70
2019-04-25T20:57:47.079Z,18.60
2019-04-25T21:00:39.961Z,18.60
2019-04-25T21:03:09.847Z,18.50
2019-04-25T21:05:39.266Z,18.50
2019-04-25T21:08:09.038Z,18.50
2019-04-25T21:10:38.461Z,18.40
2019-04-25T21:13:09.454Z,18.40
2019-04-25T21:15:56.227Z,18.30
2019-04-25T21:18:30.593Z,18.30
2019-04-25T21:20:59.942Z,18.20
2019-04-25T21:23:29.360Z,18.20
2019-04-25T21:25:59.073Z,18.20
2019-04-25T21:28:28.567Z,18.20
2019-04-25T21:30:58.740Z,18.10
2019-04-25T21:33:28.275Z,18.10
2019-04-25T21:35:57.906Z,18.10
2019-04-25T21:38:27.565Z,18.00
2019-04-25T21:40:59.929Z,18.00
2019-04-25T21:43:31.220Z,17.90
2019-04-25T21:46:01.056Z,17.90
2019-04-25T21:48:30.609Z,17.80
2019-04-25T21:51:01.789Z,17.80
2019-04-25T21:53:31.188Z,17.70
2019-04-25T21:56:01.832Z,17.70
2019-04-25T21:58:31.264Z,17.60
2019-04-25T22:01:02.817Z,17.60
2019-04-25T22:03:32.186Z,17.60
2019-04-25T22:06:02.870Z,17.50
2019-04-25T22:08:32.985Z,17.50
2019-04-25T22:11:03.169Z,17.50
2019-04-25T22:13:32.737Z,17.40
2019-04-25T22:16:02.455Z,17.40
2019-04-25T22:18:32.086Z,17.30
2019-04-25T22:21:02.362Z,17.30
2019-04-25T22:23:32.639Z,17.20
2019-04-25T22:26:02.960Z,17.20
2019-04-25T22:28:32.621Z,17.10
2019-04-25T22:31:06.227Z,17.10
2019-04-25T22:33:57.166Z,17.00
2019-04-25T22:36:28.098Z,16.90
2019-04-25T22:39:09.972Z,16.90
2019-04-25T22:41:46.499Z,16.80
2019-04-25T22:44:17.121Z,16.80
2019-04-25T22:46:46.720Z,16.70
2019-04-25T22:49:16.091Z,16.70
2019-04-25T22:51:45.454Z,16.70
2019-04-25T22:54:15.087Z,16.60
2019-04-25T22:56:44.503Z,16.60
2019-04-25T22:59:14.107Z,16.50
2019-04-25T23:01:48.045Z,16.50
2019-04-25T23:04:35.068Z,16.40
2019-04-25T23:07:04.507Z,16.30
2019-04-25T23:09:35.511Z,16.30
2019-04-25T23:12:06.680Z,16.20
2019-04-25T23:14:36.243Z,16.10
2019-04-25T23:17:05.599Z,16.10
2019-04-25T23:19:34.968Z,16.10
2019-04-25T23:22:05.635Z,16.00
2019-04-25T23:24:36.687Z,16.00
2019-04-25T23:27:12.157Z,15.90
2019-04-25T23:29:41.565Z,15.80
2019-04-25T23:32:12.392Z,15.80
2019-04-25T23:34:41.856Z,15.70
2019-04-25T23:37:11.258Z,15.70
2019-04-25T23:39:40.775Z,15.60
2019-04-25T23:42:10.177Z,15.60
2019-04-25T23:44:40.116Z,15.50
2019-04-25T23:47:10.118Z,15.50
2019-04-25T23:49:39.914Z,15.40
2019-04-25T23:52:09.445Z,15.40
2019-04-25T23:54:38.799Z,15.30
2019-04-25T23:57:09.380Z,15.30
2019-04-25T23:59:38.862Z,15.30
